sensor_id;sensor_type;location;lat;lon;timestamp;temperature;humidity
74081;SHT31;62438;52.228;6.864;2023-03-03T00:01:56;1.19;96.07
74081;SHT31;62438;52.228;6.864;2023-03-03T00:03:56;1.12;96.51
74081;SHT31;62438;52.228;6.864;2023-03-03T00:05:57;1.13;96.64
74081;SHT31;62438;52.228;6.864;2023-03-03T00:07:59;1.12;96.53
74081;SHT31;62438;52.228;6.864;2023-03-03T00:09:59;1.12;96.55
74081;SHT31;62438;52.228;6.864;2023-03-03T00:12:01;1.15;96.60
74081;SHT31;62438;52.228;6.864;2023-03-03T00:14:25;1.06;96.75
74081;SHT31;62438;52.228;6.864;2023-03-03T00:16:30;1.06;96.77
74081;SHT31;62438;52.228;6.864;2023-03-03T00:18:36;1.00;96.92
74081;SHT31;62438;52.228;6.864;2023-03-03T00:20:38;0.98;97.00
74081;SHT31;62438;52.228;6.864;2023-03-03T00:22:39;0.99;97.09
74081;SHT31;62438;52.228;6.864;2023-03-03T00:24:39;0.99;97.00
74081;SHT31;62438;52.228;6.864;2023-03-03T00:26:46;0.96;96.97
74081;SHT31;62438;52.228;6.864;2023-03-03T00:28:51;0.91;97.07
74081;SHT31;62438;52.228;6.864;2023-03-03T00:30:54;0.89;97.16
74081;SHT31;62438;52.228;6.864;2023-03-03T00:32:55;0.81;97.24
74081;SHT31;62438;52.228;6.864;2023-03-03T00:35:00;0.88;97.36
74081;SHT31;62438;52.228;6.864;2023-03-03T00:37:02;0.84;97.36
74081;SHT31;62438;52.228;6.864;2023-03-03T00:41:24;0.85;97.15
74081;SHT31;62438;52.228;6.864;2023-03-03T00:43:30;1.06;96.78
74081;SHT31;62438;52.228;6.864;2023-03-03T00:45:45;0.98;96.73
74081;SHT31;62438;52.228;6.864;2023-03-03T00:47:46;0.95;96.78
74081;SHT31;62438;52.228;6.864;2023-03-03T00:49:46;0.81;97.03
74081;SHT31;62438;52.228;6.864;2023-03-03T00:51:46;0.84;97.18
74081;SHT31;62438;52.228;6.864;2023-03-03T00:53:48;0.93;97.12
74081;SHT31;62438;52.228;6.864;2023-03-03T00:55:49;0.99;96.83
74081;SHT31;62438;52.228;6.864;2023-03-03T00:57:50;0.89;96.66
74081;SHT31;62438;52.228;6.864;2023-03-03T00:59:50;0.92;97.23
74081;SHT31;62438;52.228;6.864;2023-03-03T01:01:51;0.91;96.90
74081;SHT31;62438;52.228;6.864;2023-03-03T01:03:51;0.89;97.06
74081;SHT31;62438;52.228;6.864;2023-03-03T01:05:52;0.98;96.87
74081;SHT31;62438;52.228;6.864;2023-03-03T01:07:53;0.92;96.81
74081;SHT31;62438;52.228;6.864;2023-03-03T01:09:53;0.89;97.04
74081;SHT31;62438;52.228;6.864;2023-03-03T01:11:54;0.91;97.09
74081;SHT31;62438;52.228;6.864;2023-03-03T01:13:55;0.93;96.24
74081;SHT31;62438;52.228;6.864;2023-03-03T01:15:57;0.91;96.41
74081;SHT31;62438;52.228;6.864;2023-03-03T01:17:58;0.88;96.48
74081;SHT31;62438;52.228;6.864;2023-03-03T01:19:59;0.89;96.11
74081;SHT31;62438;52.228;6.864;2023-03-03T01:22:00;0.91;96.03
74081;SHT31;62438;52.228;6.864;2023-03-03T01:24:00;0.91;95.81
74081;SHT31;62438;52.228;6.864;2023-03-03T01:26:01;1.00;95.44
74081;SHT31;62438;52.228;6.864;2023-03-03T01:28:01;0.92;95.66
74081;SHT31;62438;52.228;6.864;2023-03-03T01:30:04;0.91;95.83
74081;SHT31;62438;52.228;6.864;2023-03-03T01:32:05;0.93;95.77
74081;SHT31;62438;52.228;6.864;2023-03-03T01:34:05;0.98;95.96
74081;SHT31;62438;52.228;6.864;2023-03-03T01:36:06;0.96;95.65
74081;SHT31;62438;52.228;6.864;2023-03-03T01:38:07;1.05;95.43
74081;SHT31;62438;52.228;6.864;2023-03-03T01:40:15;1.03;95.65
74081;SHT31;62438;52.228;6.864;2023-03-03T01:42:17;1.00;95.79
74081;SHT31;62438;52.228;6.864;2023-03-03T01:44:18;0.99;95.76
74081;SHT31;62438;52.228;6.864;2023-03-03T01:48:28;1.02;95.51
74081;SHT31;62438;52.228;6.864;2023-03-03T01:50:45;1.02;95.85
74081;SHT31;62438;52.228;6.864;2023-03-03T01:52:47;1.09;95.69
74081;SHT31;62438;52.228;6.864;2023-03-03T01:54:54;1.08;95.89
74081;SHT31;62438;52.228;6.864;2023-03-03T01:57:00;1.05;96.09
74081;SHT31;62438;52.228;6.864;2023-03-03T01:59:22;1.02;96.20
74081;SHT31;62438;52.228;6.864;2023-03-03T02:01:28;1.12;96.00
74081;SHT31;62438;52.228;6.864;2023-03-03T02:03:30;1.05;96.24
74081;SHT31;62438;52.228;6.864;2023-03-03T02:05:31;1.12;96.13
74081;SHT31;62438;52.228;6.864;2023-03-03T02:07:33;1.09;96.02
74081;SHT31;62438;52.228;6.864;2023-03-03T02:09:58;1.09;96.25
74081;SHT31;62438;52.228;6.864;2023-03-03T02:12:02;1.20;96.18
74081;SHT31;62438;52.228;6.864;2023-03-03T02:14:04;1.09;96.08
74081;SHT31;62438;52.228;6.864;2023-03-03T02:16:06;1.13;95.96
74081;SHT31;62438;52.228;6.864;2023-03-03T02:18:12;1.09;96.10
74081;SHT31;62438;52.228;6.864;2023-03-03T02:20:45;1.23;95.94
74081;SHT31;62438;52.228;6.864;2023-03-03T02:25:01;1.18;95.94
74081;SHT31;62438;52.228;6.864;2023-03-03T02:27:02;1.16;95.71
74081;SHT31;62438;52.228;6.864;2023-03-03T02:29:03;1.18;95.66
74081;SHT31;62438;52.228;6.864;2023-03-03T02:31:06;1.15;95.62
74081;SHT31;62438;52.228;6.864;2023-03-03T02:33:07;1.13;95.52
74081;SHT31;62438;52.228;6.864;2023-03-03T02:35:30;1.19;95.40
74081;SHT31;62438;52.228;6.864;2023-03-03T02:37:31;1.18;95.57
74081;SHT31;62438;52.228;6.864;2023-03-03T02:39:32;1.22;95.44
74081;SHT31;62438;52.228;6.864;2023-03-03T02:41:42;1.23;95.52
74081;SHT31;62438;52.228;6.864;2023-03-03T02:45:52;1.19;95.19
74081;SHT31;62438;52.228;6.864;2023-03-03T02:47:52;1.39;94.58
74081;SHT31;62438;52.228;6.864;2023-03-03T02:49:53;1.26;94.72
74081;SHT31;62438;52.228;6.864;2023-03-03T02:51:54;1.25;94.88
74081;SHT31;62438;52.228;6.864;2023-03-03T02:53:54;1.26;94.94
74081;SHT31;62438;52.228;6.864;2023-03-03T02:55:55;1.27;94.62
74081;SHT31;62438;52.228;6.864;2023-03-03T02:57:56;1.30;94.48
74081;SHT31;62438;52.228;6.864;2023-03-03T02:59:56;1.35;94.62
74081;SHT31;62438;52.228;6.864;2023-03-03T03:01:56;1.35;94.49
74081;SHT31;62438;52.228;6.864;2023-03-03T03:03:57;1.30;94.69
74081;SHT31;62438;52.228;6.864;2023-03-03T03:05:58;1.32;94.46
74081;SHT31;62438;52.228;6.864;2023-03-03T03:07:58;1.27;94.52
74081;SHT31;62438;52.228;6.864;2023-03-03T03:09:59;1.29;94.83
74081;SHT31;62438;52.228;6.864;2023-03-03T03:11:59;1.32;94.66
74081;SHT31;62438;52.228;6.864;2023-03-03T03:14:06;1.27;94.69
74081;SHT31;62438;52.228;6.864;2023-03-03T03:16:07;1.35;94.75
74081;SHT31;62438;52.228;6.864;2023-03-03T03:18:07;1.33;94.76
74081;SHT31;62438;52.228;6.864;2023-03-03T03:20:08;1.36;94.84
74081;SHT31;62438;52.228;6.864;2023-03-03T03:22:08;1.35;94.78
74081;SHT31;62438;52.228;6.864;2023-03-03T03:24:09;1.30;94.85
74081;SHT31;62438;52.228;6.864;2023-03-03T03:26:09;1.37;94.76
74081;SHT31;62438;52.228;6.864;2023-03-03T03:28:11;1.35;94.68
74081;SHT31;62438;52.228;6.864;2023-03-03T03:30:12;1.36;94.81
74081;SHT31;62438;52.228;6.864;2023-03-03T03:32:13;1.51;94.59
74081;SHT31;62438;52.228;6.864;2023-03-03T03:34:14;1.48;94.34
74081;SHT31;62438;52.228;6.864;2023-03-03T03:36:15;1.43;94.82
74081;SHT31;62438;52.228;6.864;2023-03-03T03:38:15;1.46;94.47
74081;SHT31;62438;52.228;6.864;2023-03-03T03:40:16;1.40;94.92
74081;SHT31;62438;52.228;6.864;2023-03-03T03:42:16;1.37;95.10
74081;SHT31;62438;52.228;6.864;2023-03-03T03:44:17;1.43;95.06
74081;SHT31;62438;52.228;6.864;2023-03-03T03:46:17;1.40;95.29
74081;SHT31;62438;52.228;6.864;2023-03-03T03:48:18;1.51;94.62
74081;SHT31;62438;52.228;6.864;2023-03-03T03:50:19;1.40;95.15
74081;SHT31;62438;52.228;6.864;2023-03-03T03:52:19;1.43;95.23
74081;SHT31;62438;52.228;6.864;2023-03-03T03:54:20;1.42;95.32
74081;SHT31;62438;52.228;6.864;2023-03-03T03:56:20;1.44;95.25
74081;SHT31;62438;52.228;6.864;2023-03-03T03:58:21;1.44;95.46
74081;SHT31;62438;52.228;6.864;2023-03-03T04:00:22;1.50;95.33
74081;SHT31;62438;52.228;6.864;2023-03-03T04:02:22;1.48;95.35
74081;SHT31;62438;52.228;6.864;2023-03-03T04:04:23;1.47;95.49
74081;SHT31;62438;52.228;6.864;2023-03-03T04:06:24;1.48;95.70
74081;SHT31;62438;52.228;6.864;2023-03-03T04:08:25;1.43;95.86
74081;SHT31;62438;52.228;6.864;2023-03-03T04:10:26;1.43;96.00
74081;SHT31;62438;52.228;6.864;2023-03-03T04:12:26;1.46;95.79
74081;SHT31;62438;52.228;6.864;2023-03-03T04:14:27;1.42;96.02
74081;SHT31;62438;52.228;6.864;2023-03-03T04:16:27;1.44;96.05
74081;SHT31;62438;52.228;6.864;2023-03-03T04:18:27;1.43;95.99
74081;SHT31;62438;52.228;6.864;2023-03-03T04:20:28;1.44;95.97
74081;SHT31;62438;52.228;6.864;2023-03-03T04:22:29;1.46;96.08
74081;SHT31;62438;52.228;6.864;2023-03-03T04:24:33;1.40;96.25
74081;SHT31;62438;52.228;6.864;2023-03-03T04:26:33;1.54;96.24
74081;SHT31;62438;52.228;6.864;2023-03-03T04:28:33;1.51;95.95
74081;SHT31;62438;52.228;6.864;2023-03-03T04:30:34;1.53;96.05
74081;SHT31;62438;52.228;6.864;2023-03-03T04:32:34;1.53;95.91
74081;SHT31;62438;52.228;6.864;2023-03-03T04:34:35;1.51;95.93
74081;SHT31;62438;52.228;6.864;2023-03-03T04:36:35;1.51;95.96
74081;SHT31;62438;52.228;6.864;2023-03-03T04:38:36;1.51;96.02
74081;SHT31;62438;52.228;6.864;2023-03-03T04:40:39;1.56;95.72
74081;SHT31;62438;52.228;6.864;2023-03-03T04:42:39;1.54;95.89
74081;SHT31;62438;52.228;6.864;2023-03-03T04:44:40;1.53;95.99
74081;SHT31;62438;52.228;6.864;2023-03-03T04:46:40;1.53;95.66
74081;SHT31;62438;52.228;6.864;2023-03-03T04:48:41;1.48;95.63
74081;SHT31;62438;52.228;6.864;2023-03-03T04:50:42;1.48;95.82
74081;SHT31;62438;52.228;6.864;2023-03-03T04:52:42;1.58;95.68
74081;SHT31;62438;52.228;6.864;2023-03-03T04:54:43;1.54;95.41
74081;SHT31;62438;52.228;6.864;2023-03-03T04:56:43;1.54;95.41
74081;SHT31;62438;52.228;6.864;2023-03-03T04:58:44;1.50;95.62
74081;SHT31;62438;52.228;6.864;2023-03-03T05:00:53;1.51;95.61
74081;SHT31;62438;52.228;6.864;2023-03-03T05:02:53;1.54;95.53
74081;SHT31;62438;52.228;6.864;2023-03-03T05:04:54;1.51;95.35
74081;SHT31;62438;52.228;6.864;2023-03-03T05:06:54;1.54;95.44
74081;SHT31;62438;52.228;6.864;2023-03-03T05:08:56;1.46;95.40
74081;SHT31;62438;52.228;6.864;2023-03-03T05:10:57;1.46;95.28
74081;SHT31;62438;52.228;6.864;2023-03-03T05:12:58;1.48;95.23
74081;SHT31;62438;52.228;6.864;2023-03-03T05:14:59;1.46;94.72
74081;SHT31;62438;52.228;6.864;2023-03-03T05:17:01;1.40;94.94
74081;SHT31;62438;52.228;6.864;2023-03-03T05:19:02;1.43;94.85
74081;SHT31;62438;52.228;6.864;2023-03-03T05:21:03;1.50;94.92
74081;SHT31;62438;52.228;6.864;2023-03-03T05:23:03;1.39;94.86
74081;SHT31;62438;52.228;6.864;2023-03-03T05:25:04;1.36;94.89
74081;SHT31;62438;52.228;6.864;2023-03-03T05:27:05;1.39;95.06
74081;SHT31;62438;52.228;6.864;2023-03-03T05:29:06;1.40;94.62
74081;SHT31;62438;52.228;6.864;2023-03-03T05:31:06;1.42;94.65
74081;SHT31;62438;52.228;6.864;2023-03-03T05:33:07;1.51;93.91
74081;SHT31;62438;52.228;6.864;2023-03-03T05:35:08;1.40;93.95
74081;SHT31;62438;52.228;6.864;2023-03-03T05:37:09;1.35;94.29
74081;SHT31;62438;52.228;6.864;2023-03-03T05:39:09;1.37;94.56
74081;SHT31;62438;52.228;6.864;2023-03-03T05:41:09;1.50;93.70
74081;SHT31;62438;52.228;6.864;2023-03-03T05:43:10;1.35;94.11
74081;SHT31;62438;52.228;6.864;2023-03-03T05:45:11;1.32;94.44
74081;SHT31;62438;52.228;6.864;2023-03-03T05:47:12;1.30;94.43
74081;SHT31;62438;52.228;6.864;2023-03-03T05:49:12;1.29;94.27
74081;SHT31;62438;52.228;6.864;2023-03-03T05:51:13;1.27;94.23
74081;SHT31;62438;52.228;6.864;2023-03-03T05:53:14;1.33;94.50
74081;SHT31;62438;52.228;6.864;2023-03-03T05:55:14;1.29;94.24
74081;SHT31;62438;52.228;6.864;2023-03-03T05:57:14;1.20;94.28
74081;SHT31;62438;52.228;6.864;2023-03-03T05:59:15;1.27;94.37
74081;SHT31;62438;52.228;6.864;2023-03-03T06:01:15;1.30;94.22
74081;SHT31;62438;52.228;6.864;2023-03-03T06:03:16;1.33;94.25
74081;SHT31;62438;52.228;6.864;2023-03-03T06:05:17;1.30;94.10
74081;SHT31;62438;52.228;6.864;2023-03-03T06:07:17;1.23;94.53
74081;SHT31;62438;52.228;6.864;2023-03-03T06:09:18;1.26;94.51
74081;SHT31;62438;52.228;6.864;2023-03-03T06:11:18;1.32;94.72
74081;SHT31;62438;52.228;6.864;2023-03-03T06:13:19;1.29;94.71
74081;SHT31;62438;52.228;6.864;2023-03-03T06:15:21;1.27;94.87
74081;SHT31;62438;52.228;6.864;2023-03-03T06:17:22;1.23;95.12
74081;SHT31;62438;52.228;6.864;2023-03-03T06:19:23;1.22;95.28
74081;SHT31;62438;52.228;6.864;2023-03-03T06:21:23;1.35;94.88
74081;SHT31;62438;52.228;6.864;2023-03-03T06:23:24;1.32;94.99
74081;SHT31;62438;52.228;6.864;2023-03-03T06:25:24;1.33;95.12
74081;SHT31;62438;52.228;6.864;2023-03-03T06:27:25;1.29;95.15
74081;SHT31;62438;52.228;6.864;2023-03-03T06:29:26;1.37;95.00
74081;SHT31;62438;52.228;6.864;2023-03-03T06:31:26;1.44;95.01
74081;SHT31;62438;52.228;6.864;2023-03-03T06:33:27;1.44;94.50
74081;SHT31;62438;52.228;6.864;2023-03-03T06:35:27;1.37;94.38
74081;SHT31;62438;52.228;6.864;2023-03-03T06:37:28;1.30;94.43
74081;SHT31;62438;52.228;6.864;2023-03-03T06:39:28;1.32;94.47
74081;SHT31;62438;52.228;6.864;2023-03-03T06:41:29;1.40;94.57
74081;SHT31;62438;52.228;6.864;2023-03-03T06:43:30;1.29;94.83
74081;SHT31;62438;52.228;6.864;2023-03-03T06:45:30;1.30;94.99
74081;SHT31;62438;52.228;6.864;2023-03-03T06:47:30;1.27;95.11
74081;SHT31;62438;52.228;6.864;2023-03-03T06:49:32;1.30;95.10
74081;SHT31;62438;52.228;6.864;2023-03-03T06:51:34;1.26;95.19
74081;SHT31;62438;52.228;6.864;2023-03-03T06:53:35;1.27;95.07
74081;SHT31;62438;52.228;6.864;2023-03-03T06:55:36;1.35;94.97
74081;SHT31;62438;52.228;6.864;2023-03-03T06:57:37;1.33;94.92
74081;SHT31;62438;52.228;6.864;2023-03-03T06:59:37;1.47;94.96
74081;SHT31;62438;52.228;6.864;2023-03-03T07:01:38;1.33;94.86
74081;SHT31;62438;52.228;6.864;2023-03-03T07:03:39;1.44;94.93
74081;SHT31;62438;52.228;6.864;2023-03-03T07:05:40;1.42;94.95
74081;SHT31;62438;52.228;6.864;2023-03-03T07:07:41;1.39;95.02
74081;SHT31;62438;52.228;6.864;2023-03-03T07:09:44;1.37;95.27
74081;SHT31;62438;52.228;6.864;2023-03-03T07:11:44;1.40;95.27
74081;SHT31;62438;52.228;6.864;2023-03-03T07:13:53;1.48;95.08
74081;SHT31;62438;52.228;6.864;2023-03-03T07:15:57;1.63;94.96
74081;SHT31;62438;52.228;6.864;2023-03-03T07:17:58;1.64;94.81
74081;SHT31;62438;52.228;6.864;2023-03-03T07:20:00;1.67;94.54
74081;SHT31;62438;52.228;6.864;2023-03-03T07:22:13;1.58;94.86
74081;SHT31;62438;52.228;6.864;2023-03-03T07:24:29;1.61;94.85
74081;SHT31;62438;52.228;6.864;2023-03-03T07:26:30;1.60;95.03
74081;SHT31;62438;52.228;6.864;2023-03-03T07:28:33;1.61;95.12
74081;SHT31;62438;52.228;6.864;2023-03-03T07:30:34;1.63;95.20
74081;SHT31;62438;52.228;6.864;2023-03-03T07:32:42;1.70;94.81
74081;SHT31;62438;52.228;6.864;2023-03-03T07:34:45;1.70;94.72
74081;SHT31;62438;52.228;6.864;2023-03-03T07:36:57;1.73;94.80
74081;SHT31;62438;52.228;6.864;2023-03-03T07:39:34;1.67;94.87
74081;SHT31;62438;52.228;6.864;2023-03-03T07:41:34;1.66;95.15
74081;SHT31;62438;52.228;6.864;2023-03-03T07:43:35;1.77;94.93
74081;SHT31;62438;52.228;6.864;2023-03-03T07:45:36;1.82;94.48
74081;SHT31;62438;52.228;6.864;2023-03-03T07:47:37;1.85;94.28
74081;SHT31;62438;52.228;6.864;2023-03-03T07:49:37;1.89;94.28
74081;SHT31;62438;52.228;6.864;2023-03-03T07:51:39;1.71;95.05
74081;SHT31;62438;52.228;6.864;2023-03-03T07:53:41;1.93;94.57
74081;SHT31;62438;52.228;6.864;2023-03-03T07:55:41;1.87;94.78
74081;SHT31;62438;52.228;6.864;2023-03-03T07:57:42;1.82;94.72
74081;SHT31;62438;52.228;6.864;2023-03-03T07:59:54;1.75;94.67
74081;SHT31;62438;52.228;6.864;2023-03-03T08:01:57;1.74;94.83
74081;SHT31;62438;52.228;6.864;2023-03-03T08:03:59;1.75;94.91
74081;SHT31;62438;52.228;6.864;2023-03-03T08:06:55;1.87;94.55
74081;SHT31;62438;52.228;6.864;2023-03-03T08:08:32;1.91;94.49
74081;SHT31;62438;52.228;6.864;2023-03-03T08:10:57;1.81;94.40
74081;SHT31;62438;52.228;6.864;2023-03-03T08:12:58;1.87;94.62
74081;SHT31;62438;52.228;6.864;2023-03-03T08:15:19;1.98;94.58
74081;SHT31;62438;52.228;6.864;2023-03-03T08:17:23;2.11;94.37
74081;SHT31;62438;52.228;6.864;2023-03-03T08:19:24;1.94;94.36
74081;SHT31;62438;52.228;6.864;2023-03-03T08:21:25;1.91;94.46
74081;SHT31;62438;52.228;6.864;2023-03-03T08:23:25;1.93;94.43
74081;SHT31;62438;52.228;6.864;2023-03-03T08:25:26;1.91;94.46
74081;SHT31;62438;52.228;6.864;2023-03-03T08:27:26;2.04;94.76
74081;SHT31;62438;52.228;6.864;2023-03-03T08:29:27;2.01;94.23
74081;SHT31;62438;52.228;6.864;2023-03-03T08:31:27;2.02;94.31
74081;SHT31;62438;52.228;6.864;2023-03-03T08:33:28;2.11;93.98
74081;SHT31;62438;52.228;6.864;2023-03-03T08:35:28;2.30;93.75
74081;SHT31;62438;52.228;6.864;2023-03-03T08:37:29;2.14;93.49
74081;SHT31;62438;52.228;6.864;2023-03-03T08:39:29;2.25;93.90
74081;SHT31;62438;52.228;6.864;2023-03-03T08:41:30;2.22;93.47
74081;SHT31;62438;52.228;6.864;2023-03-03T08:43:30;2.26;93.82
74081;SHT31;62438;52.228;6.864;2023-03-03T08:45:31;2.29;93.69
74081;SHT31;62438;52.228;6.864;2023-03-03T08:47:32;2.24;93.40
74081;SHT31;62438;52.228;6.864;2023-03-03T08:49:32;2.24;93.15
74081;SHT31;62438;52.228;6.864;2023-03-03T08:51:33;2.45;92.95
74081;SHT31;62438;52.228;6.864;2023-03-03T08:53:34;2.60;92.14
74081;SHT31;62438;52.228;6.864;2023-03-03T08:55:35;2.50;92.32
74081;SHT31;62438;52.228;6.864;2023-03-03T08:57:36;2.42;92.50
74081;SHT31;62438;52.228;6.864;2023-03-03T08:59:38;2.58;92.34
74081;SHT31;62438;52.228;6.864;2023-03-03T09:01:38;2.64;91.87
74081;SHT31;62438;52.228;6.864;2023-03-03T09:03:39;2.85;90.94
74081;SHT31;62438;52.228;6.864;2023-03-03T09:05:39;3.00;89.95
74081;SHT31;62438;52.228;6.864;2023-03-03T09:07:41;2.95;90.51
74081;SHT31;62438;52.228;6.864;2023-03-03T09:09:42;2.79;90.44
74081;SHT31;62438;52.228;6.864;2023-03-03T09:11:42;2.93;90.48
74081;SHT31;62438;52.228;6.864;2023-03-03T09:13:43;2.79;91.21
74081;SHT31;62438;52.228;6.864;2023-03-03T09:15:44;2.87;90.91
74081;SHT31;62438;52.228;6.864;2023-03-03T09:17:45;2.97;90.21
74081;SHT31;62438;52.228;6.864;2023-03-03T09:19:46;2.98;90.53
74081;SHT31;62438;52.228;6.864;2023-03-03T09:21:47;3.21;89.67
74081;SHT31;62438;52.228;6.864;2023-03-03T09:23:57;3.31;89.60
74081;SHT31;62438;52.228;6.864;2023-03-03T09:26:26;3.00;89.03
74081;SHT31;62438;52.228;6.864;2023-03-03T09:28:31;3.14;89.42
74081;SHT31;62438;52.228;6.864;2023-03-03T09:30:38;3.05;89.67
74081;SHT31;62438;52.228;6.864;2023-03-03T09:32:39;3.03;88.97
74081;SHT31;62438;52.228;6.864;2023-03-03T09:34:41;3.19;88.94
74081;SHT31;62438;52.228;6.864;2023-03-03T09:36:41;3.32;89.09
74081;SHT31;62438;52.228;6.864;2023-03-03T09:38:44;3.32;89.22
74081;SHT31;62438;52.228;6.864;2023-03-03T09:56:25;3.79;87.72
74081;SHT31;62438;52.228;6.864;2023-03-03T10:05:50;3.87;86.12
74081;SHT31;62438;52.228;6.864;2023-03-03T10:08:21;4.05;85.55
74081;SHT31;62438;52.228;6.864;2023-03-03T10:12:32;4.12;85.18
74081;SHT31;62438;52.228;6.864;2023-03-03T10:30:52;5.70;78.73
74081;SHT31;62438;52.228;6.864;2023-03-03T10:35:33;6.31;77.69
74081;SHT31;62438;52.228;6.864;2023-03-03T10:40:27;6.99;74.36
74081;SHT31;62438;52.228;6.864;2023-03-03T10:49:55;7.38;71.70
74081;SHT31;62438;52.228;6.864;2023-03-03T10:57:25;7.36;72.14
74081;SHT31;62438;52.228;6.864;2023-03-03T11:01:52;7.42;69.69
74081;SHT31;62438;52.228;6.864;2023-03-03T11:06:47;7.67;69.81
74081;SHT31;62438;52.228;6.864;2023-03-03T11:11:40;7.98;69.21
74081;SHT31;62438;52.228;6.864;2023-03-03T11:18:36;8.70;66.55
74081;SHT31;62438;52.228;6.864;2023-03-03T11:20:59;9.10;65.61
74081;SHT31;62438;52.228;6.864;2023-03-03T11:25:11;8.67;65.90
74081;SHT31;62438;52.228;6.864;2023-03-03T11:27:23;8.61;66.06
74081;SHT31;62438;52.228;6.864;2023-03-03T11:31:47;8.68;64.94
74081;SHT31;62438;52.228;6.864;2023-03-03T11:34:08;8.88;66.67
74081;SHT31;62438;52.228;6.864;2023-03-03T11:36:30;8.97;68.47
74081;SHT31;62438;52.228;6.864;2023-03-03T11:38:47;8.75;65.98
74081;SHT31;62438;52.228;6.864;2023-03-03T11:40:54;8.56;67.89
74081;SHT31;62438;52.228;6.864;2023-03-03T11:45:07;8.97;65.13
74081;SHT31;62438;52.228;6.864;2023-03-03T11:49:49;7.37;69.57
74081;SHT31;62438;52.228;6.864;2023-03-03T11:54:45;7.94;68.58
74081;SHT31;62438;52.228;6.864;2023-03-03T11:56:49;7.88;68.90
74081;SHT31;62438;52.228;6.864;2023-03-03T11:59:05;7.64;68.87
74081;SHT31;62438;52.228;6.864;2023-03-03T12:13:32;8.13;68.08
74081;SHT31;62438;52.228;6.864;2023-03-03T12:20:33;8.32;66.24
74081;SHT31;62438;52.228;6.864;2023-03-03T12:24:49;7.99;68.44
74081;SHT31;62438;52.228;6.864;2023-03-03T12:31:35;8.56;68.96
74081;SHT31;62438;52.228;6.864;2023-03-03T12:33:57;8.57;64.50
74081;SHT31;62438;52.228;6.864;2023-03-03T12:40:25;8.73;64.88
74081;SHT31;62438;52.228;6.864;2023-03-03T12:47:15;8.73;65.26
74081;SHT31;62438;52.228;6.864;2023-03-03T12:49:19;8.63;67.27
74081;SHT31;62438;52.228;6.864;2023-03-03T12:56:12;7.95;67.77
74081;SHT31;62438;52.228;6.864;2023-03-03T12:58:22;7.79;68.78
74081;SHT31;62438;52.228;6.864;2023-03-03T13:00:30;7.82;67.83
74081;SHT31;62438;52.228;6.864;2023-03-03T13:05:30;7.85;68.40
74081;SHT31;62438;52.228;6.864;2023-03-03T13:16:28;8.17;68.66
74081;SHT31;62438;52.228;6.864;2023-03-03T13:19:17;8.13;67.89
74081;SHT31;62438;52.228;6.864;2023-03-03T13:23:09;8.02;68.31
74081;SHT31;62438;52.228;6.864;2023-03-03T13:27:39;7.78;69.11
74081;SHT31;62438;52.228;6.864;2023-03-03T13:29:52;7.68;69.55
74081;SHT31;62438;52.228;6.864;2023-03-03T13:31:55;7.71;69.85
74081;SHT31;62438;52.228;6.864;2023-03-03T13:33:58;7.89;69.51
74081;SHT31;62438;52.228;6.864;2023-03-03T13:36:06;7.71;69.52
74081;SHT31;62438;52.228;6.864;2023-03-03T13:38:17;7.56;70.39
74081;SHT31;62438;52.228;6.864;2023-03-03T13:40:22;7.48;70.16
74081;SHT31;62438;52.228;6.864;2023-03-03T13:44:33;7.42;71.08
74081;SHT31;62438;52.228;6.864;2023-03-03T13:46:53;7.36;70.67
74081;SHT31;62438;52.228;6.864;2023-03-03T13:53:31;7.40;71.53
74081;SHT31;62438;52.228;6.864;2023-03-03T13:55:46;7.37;72.04
74081;SHT31;62438;52.228;6.864;2023-03-03T13:57:58;7.43;72.26
74081;SHT31;62438;52.228;6.864;2023-03-03T14:00:18;7.40;71.14
74081;SHT31;62438;52.228;6.864;2023-03-03T14:02:28;7.48;71.97
74081;SHT31;62438;52.228;6.864;2023-03-03T14:04:53;7.51;72.58
74081;SHT31;62438;52.228;6.864;2023-03-03T14:07:18;7.46;72.07
74081;SHT31;62438;52.228;6.864;2023-03-03T14:11:36;7.31;72.62
74081;SHT31;62438;52.228;6.864;2023-03-03T14:18:27;7.68;70.89
74081;SHT31;62438;52.228;6.864;2023-03-03T14:20:38;7.68;70.03
74081;SHT31;62438;52.228;6.864;2023-03-03T14:22:48;7.63;70.82
74081;SHT31;62438;52.228;6.864;2023-03-03T14:25:13;7.43;71.89
74081;SHT31;62438;52.228;6.864;2023-03-03T14:27:24;7.48;71.33
74081;SHT31;62438;52.228;6.864;2023-03-03T14:31:28;7.40;71.94
74081;SHT31;62438;52.228;6.864;2023-03-03T14:33:30;7.30;72.95
74081;SHT31;62438;52.228;6.864;2023-03-03T14:35:34;7.27;72.57
74081;SHT31;62438;52.228;6.864;2023-03-03T14:37:43;7.23;72.14
74081;SHT31;62438;52.228;6.864;2023-03-03T14:42:36;7.24;72.39
74081;SHT31;62438;52.228;6.864;2023-03-03T14:44:51;7.23;72.79
74081;SHT31;62438;52.228;6.864;2023-03-03T14:47:22;7.23;72.22
74081;SHT31;62438;52.228;6.864;2023-03-03T14:49:32;7.31;71.45
74081;SHT31;62438;52.228;6.864;2023-03-03T14:53:44;7.47;72.15
74081;SHT31;62438;52.228;6.864;2023-03-03T14:55:51;7.48;72.48
74081;SHT31;62438;52.228;6.864;2023-03-03T14:57:52;7.34;72.73
74081;SHT31;62438;52.228;6.864;2023-03-03T15:00:28;7.23;73.08
74081;SHT31;62438;52.228;6.864;2023-03-03T15:02:31;7.24;74.18
74081;SHT31;62438;52.228;6.864;2023-03-03T15:04:34;7.15;73.15
74081;SHT31;62438;52.228;6.864;2023-03-03T15:06:48;7.16;73.58
74081;SHT31;62438;52.228;6.864;2023-03-03T15:08:49;7.22;73.21
74081;SHT31;62438;52.228;6.864;2023-03-03T15:10:49;7.22;72.52
74081;SHT31;62438;52.228;6.864;2023-03-03T15:12:50;7.15;72.49
74081;SHT31;62438;52.228;6.864;2023-03-03T15:14:52;7.05;73.24
74081;SHT31;62438;52.228;6.864;2023-03-03T15:21:32;7.15;73.20
74081;SHT31;62438;52.228;6.864;2023-03-03T15:23:54;7.12;72.67
74081;SHT31;62438;52.228;6.864;2023-03-03T15:26:00;7.24;72.87
74081;SHT31;62438;52.228;6.864;2023-03-03T15:30:35;7.12;72.93
74081;SHT31;62438;52.228;6.864;2023-03-03T15:32:47;7.06;72.13
74081;SHT31;62438;52.228;6.864;2023-03-03T15:35:18;7.07;72.57
74081;SHT31;62438;52.228;6.864;2023-03-03T15:37:28;7.07;71.06
74081;SHT31;62438;52.228;6.864;2023-03-03T15:45:00;7.00;70.26
74081;SHT31;62438;52.228;6.864;2023-03-03T15:49:24;6.95;71.03
74081;SHT31;62438;52.228;6.864;2023-03-03T15:54:13;6.93;71.04
74081;SHT31;62438;52.228;6.864;2023-03-03T15:56:36;6.91;70.21
74081;SHT31;62438;52.228;6.864;2023-03-03T16:03:43;6.88;70.33
74081;SHT31;62438;52.228;6.864;2023-03-03T16:05:54;6.82;71.41
74081;SHT31;62438;52.228;6.864;2023-03-03T16:10:41;6.82;71.40
74081;SHT31;62438;52.228;6.864;2023-03-03T16:19:55;6.68;71.59
74081;SHT31;62438;52.228;6.864;2023-03-03T16:24:31;6.65;72.59
74081;SHT31;62438;52.228;6.864;2023-03-03T16:27:05;6.61;73.30
74081;SHT31;62438;52.228;6.864;2023-03-03T16:29:21;6.65;72.15
74081;SHT31;62438;52.228;6.864;2023-03-03T16:35:51;6.63;73.33
74081;SHT31;62438;52.228;6.864;2023-03-03T16:38:01;6.57;73.48
74081;SHT31;62438;52.228;6.864;2023-03-03T16:40:10;6.55;73.49
74081;SHT31;62438;52.228;6.864;2023-03-03T16:47:01;6.55;75.26
74081;SHT31;62438;52.228;6.864;2023-03-03T16:49:32;6.51;75.52
74081;SHT31;62438;52.228;6.864;2023-03-03T16:51:46;6.52;75.67